Time;durP1;ratioP1;P1;durP2;ratioP2;P2;SDS_P1;SDS_P2;PMS_P1;PMS_P2;Temp;Humidity;BMP_temperature;BMP_pressure;BME280_temperature;BME280_humidity;BME280_pressure;Samples;Min_cycle;Max_cycle;Signal;HPM_P1;HPM_P2
2022/01/01 00:00:06;;;;;;;51.07;37.67;;;11.80;99.90;;;;;;5065423;28;20278;-69
2022/01/01 00:02:31;;;;;;;48.30;38.53;;;11.80;99.90;;;;;;5073710;28;20190;-68
2022/01/01 00:04:58;;;;;;;41.20;34.43;;;11.80;99.90;;;;;;5069371;28;20194;-68
2022/01/01 00:07:23;;;;;;;41.70;31.87;;;11.80;99.90;;;;;;5069228;28;20796;-67
2022/01/01 00:09:49;;;;;;;36.57;31.10;;;11.80;99.90;;;;;;5069391;28;20282;-67
2022/01/01 00:12:14;;;;;;;39.27;30.43;;;11.90;99.90;;;;;;5070102;28;20301;-71
2022/01/01 00:14:40;;;;;;;33.97;26.17;;;11.90;99.90;;;;;;5068013;28;20230;-69
2022/01/01 00:17:07;;;;;;;31.87;26.10;;;11.80;99.90;;;;;;5075761;28;20668;-70
2022/01/01 00:19:32;;;;;;;30.43;27.10;;;11.80;99.90;;;;;;5079942;28;20216;-70
2022/01/01 00:22:00;;;;;;;30.37;24.97;;;11.90;99.90;;;;;;5077683;28;20183;-70
2022/01/01 00:24:26;;;;;;;27.40;22.80;;;11.90;99.90;;;;;;5073305;28;20201;-71
2022/01/01 00:26:52;;;;;;;28.23;22.07;;;11.90;99.90;;;;;;5071414;28;20188;-70
2022/01/01 00:29:18;;;;;;;27.67;22.40;;;11.90;99.90;;;;;;5077300;28;20628;-71
2022/01/01 00:31:43;;;;;;;24.37;19.23;;;11.90;99.90;;;;;;5076908;28;20205;-68
2022/01/01 00:34:09;;;;;;;25.57;19.53;;;11.90;99.90;;;;;;5074518;28;20567;-69
2022/01/01 00:36:34;;;;;;;24.37;21.00;;;11.90;99.90;;;;;;5075431;28;20766;-68
2022/01/01 00:39:00;;;;;;;23.73;18.70;;;11.90;99.90;;;;;;5071770;28;20310;-68
2022/01/01 00:41:25;;;;;;;24.53;18.87;;;11.90;99.90;;;;;;5067979;28;20640;-67
2022/01/01 00:43:51;;;;;;;24.43;18.87;;;11.90;99.90;;;;;;5067214;28;20683;-67
2022/01/01 00:46:16;;;;;;;22.83;19.03;;;11.90;99.90;;;;;;5075997;28;20203;-67
2022/01/01 00:48:42;;;;;;;24.23;19.80;;;11.90;99.90;;;;;;5078869;28;20855;-67
2022/01/01 00:51:07;;;;;;;22.80;20.03;;;12.00;99.90;;;;;;5071075;28;20203;-66
2022/01/01 00:53:33;;;;;;;22.40;17.93;;;11.90;99.90;;;;;;5061558;28;20255;-68
2022/01/01 00:55:58;;;;;;;25.60;18.93;;;12.00;99.90;;;;;;5070618;28;20612;-68
2022/01/01 00:58:24;;;;;;;23.67;18.77;;;11.90;99.90;;;;;;5057858;28;20205;-69
2022/01/01 01:00:50;;;;;;;22.97;18.70;;;12.00;99.90;;;;;;5068096;28;20194;-67
2022/01/01 01:03:17;;;;;;;22.77;18.70;;;11.90;99.90;;;;;;5075377;28;20544;-67
2022/01/01 01:05:45;;;;;;;19.57;16.97;;;11.90;99.90;;;;;;5068957;28;20217;-67
2022/01/01 01:08:12;;;;;;;22.07;17.97;;;12.00;99.90;;;;;;5076274;28;20199;-68
2022/01/01 01:10:38;;;;;;;24.30;19.00;;;12.00;99.90;;;;;;5070988;28;20222;-69
2022/01/01 01:13:05;;;;;;;24.70;18.40;;;11.90;99.90;;;;;;5067326;28;20226;-71
2022/01/01 01:15:32;;;;;;;24.00;18.70;;;11.90;99.90;;;;;;5052288;28;20370;-72
2022/01/01 01:17:58;;;;;;;35.40;26.53;;;11.90;99.90;;;;;;5073562;28;20611;-71
2022/01/01 01:20:25;;;;;;;21.50;18.60;;;11.90;99.90;;;;;;5060522;28;20718;-68
2022/01/01 01:22:51;;;;;;;21.13;18.90;;;11.90;99.90;;;;;;5075675;28;20659;-68
2022/01/01 01:25:17;;;;;;;22.10;17.77;;;11.90;99.90;;;;;;5075450;28;20209;-68
2022/01/01 01:27:43;;;;;;;25.30;18.10;;;11.90;99.90;;;;;;5078304;28;20186;-68
2022/01/01 01:30:14;;;;;;;21.77;18.20;;;11.80;99.90;;;;;;5066696;28;20194;-68
2022/01/01 01:32:40;;;;;;;22.53;17.37;;;11.90;99.90;;;;;;5059248;28;20682;-68
2022/01/01 01:35:07;;;;;;;22.83;18.20;;;11.90;99.90;;;;;;5058447;28;20206;-71
2022/01/01 01:37:33;;;;;;;23.30;19.43;;;11.90;99.90;;;;;;5058518;28;20203;-67
2022/01/01 01:39:59;;;;;;;22.27;18.13;;;11.90;99.90;;;;;;5067851;28;20221;-71
2022/01/01 01:42:27;;;;;;;21.27;16.93;;;11.90;99.90;;;;;;5068591;28;20655;-71
2022/01/01 01:44:54;;;;;;;23.70;16.80;;;11.90;99.90;;;;;;5057700;28;20204;-71
2022/01/01 01:47:32;;;;;;;22.83;18.03;;;11.90;99.90;;;;;;5070362;28;20184;-69
2022/01/01 01:50:01;;;;;;;23.53;18.97;;;12.00;99.90;;;;;;5068072;28;20201;-67
2022/01/01 01:52:31;;;;;;;24.53;19.00;;;12.10;99.90;;;;;;5069725;28;20282;-68
2022/01/01 01:54:57;;;;;;;23.03;18.80;;;12.10;99.90;;;;;;5056256;28;20208;-66
2022/01/01 01:57:25;;;;;;;28.20;19.83;;;12.20;99.90;;;;;;5065037;28;20233;-66
2022/01/01 01:59:52;;;;;;;24.80;20.13;;;12.20;99.90;;;;;;5063462;28;20652;-65
2022/01/01 02:02:17;;;;;;;23.17;17.77;;;12.10;99.90;;;;;;5051032;28;20349;-65
2022/01/01 02:04:43;;;;;;;24.03;18.77;;;12.20;99.90;;;;;;5052836;28;20298;-64
2022/01/01 02:07:09;;;;;;;23.93;17.30;;;12.20;99.90;;;;;;5055140;28;20644;-64
2022/01/01 02:09:35;;;;;;;24.73;19.20;;;12.20;99.90;;;;;;5055969;28;20698;-64
2022/01/01 02:12:05;;;;;;;20.00;16.07;;;12.20;99.90;;;;;;5055620;28;20336;-64
2022/01/01 02:15:27;;;;;;;27.00;18.87;;;12.20;99.90;;;;;;5053700;28;20232;-65
2022/01/01 02:17:17;;;;;;;23.93;18.40;;;12.30;99.90;;;;;;5053661;28;20703;-64
2022/01/01 02:19:45;;;;;;;19.60;14.40;;;12.30;99.90;;;;;;5052276;28;20317;-65
2022/01/01 02:22:11;;;;;;;22.17;17.83;;;12.20;99.90;;;;;;5054630;28;20175;-64
2022/01/01 02:24:36;;;;;;;24.57;16.80;;;12.30;99.90;;;;;;5053337;28;20192;-63
2022/01/01 02:27:02;;;;;;;22.23;18.13;;;12.30;99.90;;;;;;5054792;28;20194;-65
2022/01/01 02:29:28;;;;;;;25.03;17.40;;;12.30;99.90;;;;;;5054725;28;20258;-65
2022/01/01 02:31:53;;;;;;;21.20;17.67;;;12.20;99.90;;;;;;5055473;28;20548;-64
2022/01/01 02:34:19;;;;;;;21.20;17.33;;;12.20;99.90;;;;;;5055388;28;20501;-64
2022/01/01 02:36:45;;;;;;;22.30;17.07;;;12.10;99.90;;;;;;5054512;28;20295;-64
2022/01/01 02:39:21;;;;;;;19.70;15.47;;;12.00;99.90;;;;;;5053718;28;20208;-65
2022/01/01 02:41:50;;;;;;;21.27;16.77;;;12.00;99.90;;;;;;5056010;28;20187;-65
2022/01/01 02:44:16;;;;;;;24.73;17.40;;;12.00;99.90;;;;;;5062839;28;20199;-64
2022/01/01 02:46:42;;;;;;;23.40;17.63;;;11.90;99.90;;;;;;5065229;28;20236;-64
2022/01/01 02:49:07;;;;;;;20.43;17.57;;;11.90;99.90;;;;;;5062239;28;20195;-70
2022/01/01 02:51:33;;;;;;;24.17;16.43;;;11.90;99.90;;;;;;5045474;28;20171;-64
2022/01/01 02:53:59;;;;;;;18.60;15.93;;;11.90;99.90;;;;;;5064551;28;20198;-63
2022/01/01 02:56:25;;;;;;;24.97;16.57;;;11.90;99.90;;;;;;5058946;28;20203;-65
2022/01/01 02:58:51;;;;;;;22.70;18.07;;;11.90;99.90;;;;;;5064341;28;20210;-64
2022/01/01 03:01:17;;;;;;;21.63;16.83;;;11.90;99.90;;;;;;5051325;28;20215;-62
2022/01/01 03:03:43;;;;;;;25.33;18.73;;;11.90;99.90;;;;;;5064909;28;20658;-63
2022/01/01 03:06:08;;;;;;;28.10;17.27;;;11.90;99.90;;;;;;5046148;28;20203;-63
2022/01/01 03:08:34;;;;;;;24.57;17.50;;;11.80;99.90;;;;;;5064117;28;20186;-62
2022/01/01 03:11:02;;;;;;;23.17;17.23;;;11.80;99.90;;;;;;5050831;28;20198;-62
2022/01/01 03:13:29;;;;;;;20.97;16.17;;;11.80;99.90;;;;;;5064381;28;20673;-62
2022/01/01 03:15:54;;;;;;;22.87;16.80;;;11.90;99.90;;;;;;5050397;28;20228;-63
2022/01/01 03:18:20;;;;;;;24.10;17.53;;;11.80;99.90;;;;;;5063753;28;20692;-63
2022/01/01 03:20:45;;;;;;;26.17;16.97;;;11.80;99.90;;;;;;5047503;28;20227;-63
2022/01/01 03:23:11;;;;;;;19.03;15.60;;;11.80;99.90;;;;;;5061005;28;20259;-62
2022/01/01 03:25:36;;;;;;;22.60;16.20;;;11.90;99.90;;;;;;5048319;28;20206;-63
2022/01/01 03:28:01;;;;;;;18.87;15.73;;;11.90;99.90;;;;;;5063156;28;20224;-62
2022/01/01 03:30:54;;;;;;;19.83;15.53;;;11.80;99.90;;;;;;5056331;28;20695;-63
2022/01/01 03:33:20;;;;;;;23.30;15.27;;;11.90;99.90;;;;;;5050465;28;20209;-63
2022/01/01 03:35:48;;;;;;;25.13;14.43;;;11.90;99.90;;;;;;5067771;28;20576;-62
2022/01/01 03:38:13;;;;;;;21.63;14.73;;;11.90;99.90;;;;;;5060798;28;20688;-62
2022/01/01 03:40:39;;;;;;;17.63;13.03;;;11.90;99.90;;;;;;5066340;28;20281;-62
2022/01/01 03:43:04;;;;;;;20.73;14.63;;;11.90;99.90;;;;;;5053953;28;20708;-63
2022/01/01 03:45:30;;;;;;;24.00;13.67;;;11.90;99.90;;;;;;5065994;28;20302;-63
2022/01/01 03:47:56;;;;;;;16.63;12.40;;;11.90;99.90;;;;;;5055358;28;20762;-63
2022/01/01 03:50:22;;;;;;;17.87;13.23;;;11.90;99.90;;;;;;5063101;28;20206;-63
2022/01/01 03:52:47;;;;;;;20.77;13.23;;;12.00;99.90;;;;;;5056528;28;20616;-63
2022/01/01 03:55:14;;;;;;;14.17;11.17;;;12.00;99.90;;;;;;5064371;28;20194;-64
2022/01/01 03:57:40;;;;;;;18.60;13.90;;;11.90;99.90;;;;;;5057711;28;20262;-63
2022/01/01 04:00:09;;;;;;;20.97;13.37;;;12.00;99.90;;;;;;5066653;28;20218;-63
2022/01/01 04:02:35;;;;;;;16.47;12.20;;;12.00;99.90;;;;;;5058382;28;20638;-64
2022/01/01 04:05:00;;;;;;;19.17;11.73;;;12.00;99.90;;;;;;5061175;28;20228;-63
2022/01/01 04:07:26;;;;;;;18.83;11.00;;;12.00;99.90;;;;;;5059902;28;20661;-64
2022/01/01 04:09:51;;;;;;;16.77;10.67;;;12.00;99.90;;;;;;5063998;28;20188;-63
2022/01/01 04:12:16;;;;;;;15.33;11.23;;;12.00;99.90;;;;;;5060979;28;20239;-63
2022/01/01 04:14:42;;;;;;;14.97;11.33;;;12.00;99.90;;;;;;5058067;28;20272;-63
2022/01/01 04:17:10;;;;;;;15.57;11.83;;;11.90;99.90;;;;;;5063007;28;20982;-63
2022/01/01 04:19:39;;;;;;;17.07;11.00;;;11.90;99.90;;;;;;5053184;28;20294;-63
2022/01/01 04:22:08;;;;;;;14.33;10.30;;;11.90;99.90;;;;;;5066114;28;20293;-62
2022/01/01 04:24:35;;;;;;;16.13;10.73;;;11.90;99.90;;;;;;5056377;28;20195;-62
2022/01/01 04:27:01;;;;;;;19.00;11.13;;;11.90;99.90;;;;;;5066024;28;20201;-62
2022/01/01 04:29:26;;;;;;;21.93;11.80;;;11.90;99.90;;;;;;5059136;28;20191;-62
2022/01/01 04:31:52;;;;;;;15.63;9.97;;;11.90;99.90;;;;;;5063346;28;20575;-62
2022/01/01 04:34:18;;;;;;;17.67;11.23;;;11.90;99.90;;;;;;5054326;28;20562;-62
2022/01/01 04:36:50;;;;;;;20.63;12.90;;;11.90;99.90;;;;;;5065794;28;20215;-62
2022/01/01 04:39:15;;;;;;;20.53;12.73;;;11.90;99.90;;;;;;5058852;28;20212;-62
2022/01/01 04:41:41;;;;;;;19.03;12.30;;;11.90;99.90;;;;;;5067596;28;20186;-63
2022/01/01 04:44:08;;;;;;;17.73;11.27;;;11.90;99.90;;;;;;5056003;28;20571;-62
2022/01/01 04:46:33;;;;;;;19.50;11.90;;;11.90;99.90;;;;;;5061961;28;20199;-63
2022/01/01 04:48:59;;;;;;;18.00;13.07;;;11.90;99.90;;;;;;5054242;28;20212;-63
2022/01/01 04:51:24;;;;;;;15.57;12.10;;;11.90;99.90;;;;;;5066362;28;20192;-63
2022/01/01 04:53:50;;;;;;;19.40;13.40;;;11.90;99.90;;;;;;5055579;28;20195;-63
2022/01/01 04:56:19;;;;;;;23.70;15.07;;;11.90;99.90;;;;;;5067069;28;20249;-62
2022/01/01 04:58:45;;;;;;;21.03;14.40;;;11.90;99.90;;;;;;5048879;28;20212;-63
2022/01/01 05:01:11;;;;;;;20.37;13.50;;;11.90;99.90;;;;;;5066587;28;20191;-63
2022/01/01 05:03:37;;;;;;;17.83;13.53;;;11.90;99.90;;;;;;5057278;28;20612;-63
2022/01/01 05:06:02;;;;;;;19.10;13.93;;;11.90;99.90;;;;;;5065675;28;20195;-64
2022/01/01 05:08:28;;;;;;;18.67;12.43;;;11.90;99.90;;;;;;5059706;28;20196;-63
2022/01/01 05:10:53;;;;;;;14.67;11.50;;;12.00;99.90;;;;;;5066511;28;20188;-64
2022/01/01 05:13:19;;;;;;;16.73;10.93;;;12.00;99.90;;;;;;5052030;28;20495;-62
2022/01/01 05:15:45;;;;;;;21.77;12.77;;;12.00;99.90;;;;;;5066150;28;20247;-63
2022/01/01 05:18:11;;;;;;;15.07;12.57;;;11.90;99.90;;;;;;5056747;28;20204;-63
2022/01/01 05:20:36;;;;;;;16.93;12.00;;;11.90;99.90;;;;;;5066301;28;20222;-64
2022/01/01 05:23:02;;;;;;;18.63;12.13;;;11.90;99.90;;;;;;5054253;28;20199;-64
2022/01/01 05:25:28;;;;;;;15.77;12.40;;;11.90;99.90;;;;;;5066064;28;20302;-63
2022/01/01 05:27:53;;;;;;;23.07;13.70;;;12.00;99.90;;;;;;5064995;28;20222;-63
2022/01/01 05:30:19;;;;;;;19.87;12.93;;;11.90;99.90;;;;;;5065836;28;20283;-63
2022/01/01 05:32:44;;;;;;;16.43;12.47;;;11.90;99.90;;;;;;5064560;28;20616;-63
2022/01/01 05:35:10;;;;;;;19.43;14.30;;;11.90;99.90;;;;;;5064485;28;20223;-63
2022/01/01 05:37:35;;;;;;;23.63;13.87;;;11.90;99.90;;;;;;5056795;28;20201;-63
2022/01/01 05:40:01;;;;;;;21.47;13.80;;;11.90;99.90;;;;;;5062940;28;20212;-63
2022/01/01 05:42:27;;;;;;;22.37;13.57;;;11.90;99.90;;;;;;5063914;28;20199;-64
2022/01/01 05:44:52;;;;;;;25.00;13.73;;;11.90;99.90;;;;;;5054437;28;20193;-64
2022/01/01 05:47:18;;;;;;;19.93;13.77;;;11.90;99.90;;;;;;5063567;28;20206;-64
2022/01/01 05:49:43;;;;;;;28.27;14.13;;;11.90;99.90;;;;;;5066465;28;20191;-63
2022/01/01 05:52:09;;;;;;;22.90;13.23;;;11.90;99.90;;;;;;5064356;28;20209;-65
2022/01/01 05:54:34;;;;;;;18.63;13.37;;;11.90;99.90;;;;;;5051558;28;20195;-64
2022/01/01 05:57:00;;;;;;;20.47;14.00;;;11.90;99.90;;;;;;5061305;28;20200;-64
2022/01/01 05:59:26;;;;;;;16.17;13.20;;;11.90;99.90;;;;;;5054525;28;20204;-64
2022/01/01 06:01:51;;;;;;;17.23;13.00;;;11.90;99.90;;;;;;5060713;28;20559;-63
2022/01/01 06:04:17;;;;;;;22.93;14.27;;;11.90;99.90;;;;;;5058766;28;20789;-64
2022/01/01 06:06:42;;;;;;;22.97;14.17;;;11.90;99.90;;;;;;5065600;28;20585;-63
2022/01/01 06:09:08;;;;;;;18.67;12.97;;;11.90;99.90;;;;;;5054940;28;20206;-64
2022/01/01 06:11:33;;;;;;;23.77;13.30;;;11.90;99.90;;;;;;5065623;28;20632;-64
2022/01/01 06:13:59;;;;;;;20.07;12.57;;;11.90;99.90;;;;;;5050299;28;20221;-64
2022/01/01 06:16:24;;;;;;;22.43;13.27;;;11.90;99.90;;;;;;5065942;28;20240;-64
2022/01/01 06:18:50;;;;;;;19.73;12.90;;;11.90;99.90;;;;;;5050174;28;20749;-64
2022/01/01 06:21:15;;;;;;;18.20;13.47;;;11.90;99.90;;;;;;5065500;28;20271;-64
2022/01/01 06:23:41;;;;;;;20.10;12.40;;;11.90;99.90;;;;;;5054532;28;20204;-63
2022/01/01 06:26:07;;;;;;;17.60;11.83;;;11.90;99.90;;;;;;5065636;28;20210;-64
2022/01/01 06:28:32;;;;;;;16.13;11.97;;;11.90;99.90;;;;;;5050107;28;20202;-64
2022/01/01 06:30:58;;;;;;;19.00;12.97;;;12.00;99.90;;;;;;5065622;28;20204;-63
2022/01/01 06:33:24;;;;;;;18.87;13.00;;;11.90;99.90;;;;;;5054100;28;20210;-64
2022/01/01 06:35:49;;;;;;;19.10;12.63;;;11.90;99.90;;;;;;5065600;28;20249;-64
2022/01/01 06:38:15;;;;;;;21.37;11.93;;;12.00;99.90;;;;;;5060851;28;20231;-64
2022/01/01 06:40:42;;;;;;;18.57;13.70;;;12.00;99.90;;;;;;5064662;28;20216;-64
2022/01/01 06:43:10;;;;;;;20.80;13.40;;;12.00;99.90;;;;;;5053761;28;20241;-64
2022/01/01 06:45:36;;;;;;;20.20;12.03;;;12.00;99.90;;;;;;5065654;28;20294;-64
2022/01/01 06:48:02;;;;;;;21.43;12.97;;;12.00;99.90;;;;;;5063210;28;20302;-65
2022/01/01 06:50:28;;;;;;;17.93;12.07;;;12.00;99.90;;;;;;5065428;28;20200;-65
2022/01/01 06:52:54;;;;;;;20.73;12.90;;;11.90;99.90;;;;;;5053913;28;20257;-64
2022/01/01 06:55:19;;;;;;;21.20;13.30;;;12.00;99.90;;;;;;5065180;28;20660;-66
2022/01/01 06:57:45;;;;;;;20.13;12.27;;;12.00;99.90;;;;;;5055054;28;20198;-64
2022/01/01 07:00:13;;;;;;;19.50;13.57;;;12.00;99.90;;;;;;5064810;28;20631;-65
2022/01/01 07:02:40;;;;;;;23.03;12.57;;;12.00;99.90;;;;;;5056086;28;20553;-64
2022/01/01 07:05:06;;;;;;;21.17;13.97;;;12.00;99.90;;;;;;5054008;28;20351;-65
2022/01/01 07:07:32;;;;;;;25.07;13.20;;;12.00;99.90;;;;;;5061428;28;20557;-65
2022/01/01 07:09:58;;;;;;;21.47;12.73;;;12.00;99.90;;;;;;5048859;28;20200;-65
2022/01/01 07:12:23;;;;;;;19.97;12.87;;;12.00;99.90;;;;;;5056477;28;20253;-65
2022/01/01 07:14:49;;;;;;;21.97;13.20;;;12.00;99.90;;;;;;5056679;28;20238;-65
2022/01/01 07:17:14;;;;;;;20.83;12.63;;;12.00;99.90;;;;;;5063629;28;20618;-65
2022/01/01 07:19:40;;;;;;;21.97;13.67;;;12.00;99.90;;;;;;5059884;28;20614;-66
2022/01/01 07:22:05;;;;;;;24.73;13.93;;;12.00;99.90;;;;;;5060295;28;20220;-65
2022/01/01 07:24:31;;;;;;;23.70;14.03;;;12.00;99.90;;;;;;5050053;28;20192;-64
2022/01/01 07:26:56;;;;;;;21.87;13.07;;;12.00;99.90;;;;;;5063250;28;20192;-65
2022/01/01 07:29:22;;;;;;;19.83;12.80;;;12.00;99.90;;;;;;5065123;28;20193;-65
2022/01/01 07:31:47;;;;;;;21.20;13.57;;;12.10;99.90;;;;;;5062579;28;20656;-64
2022/01/01 07:34:13;;;;;;;20.80;13.27;;;12.00;99.90;;;;;;5050161;28;20195;-65
2022/01/01 07:36:38;;;;;;;23.03;12.60;;;12.00;99.90;;;;;;5063856;28;20740;-65
2022/01/01 07:39:04;;;;;;;19.40;12.03;;;12.00;99.90;;;;;;5053131;28;20325;-65
2022/01/01 07:41:29;;;;;;;19.93;12.20;;;12.00;99.90;;;;;;5063760;28;20191;-64
2022/01/01 07:43:55;;;;;;;19.27;11.97;;;12.00;99.90;;;;;;5053975;28;20310;-64
2022/01/01 07:46:20;;;;;;;16.63;12.33;;;12.00;99.90;;;;;;5060212;28;20218;-65
2022/01/01 07:48:46;;;;;;;21.17;14.43;;;12.00;99.90;;;;;;5053924;28;20212;-66
2022/01/01 07:51:11;;;;;;;21.03;12.73;;;12.00;99.90;;;;;;5064541;28;20268;-65
2022/01/01 07:53:37;;;;;;;20.50;12.70;;;12.00;99.90;;;;;;5047374;28;20207;-65
2022/01/01 07:56:02;;;;;;;21.27;12.53;;;12.00;99.90;;;;;;5064192;28;20206;-64
2022/01/01 07:58:28;;;;;;;19.13;11.87;;;12.00;99.90;;;;;;5049836;28;20680;-65
2022/01/01 08:00:54;;;;;;;24.70;12.50;;;12.00;99.90;;;;;;5059329;28;20241;-65
2022/01/01 08:03:19;;;;;;;19.10;12.83;;;12.00;99.90;;;;;;5048930;28;20613;-64
2022/01/01 08:05:45;;;;;;;21.43;13.57;;;12.00;99.90;;;;;;5062431;28;20195;-65
2022/01/01 08:08:10;;;;;;;16.67;11.37;;;12.00;99.90;;;;;;5053190;28;20198;-65
2022/01/01 08:10:37;;;;;;;17.03;13.33;;;12.00;99.90;;;;;;5064674;28;20227;-65
2022/01/01 08:13:04;;;;;;;19.87;13.60;;;12.10;99.90;;;;;;5052791;28;20213;-65
2022/01/01 08:15:29;;;;;;;19.37;11.93;;;12.00;99.90;;;;;;5064437;28;20314;-64
2022/01/01 08:17:55;;;;;;;18.50;12.73;;;12.10;99.90;;;;;;5055676;28;20221;-64
2022/01/01 08:20:21;;;;;;;24.10;13.50;;;12.10;99.90;;;;;;5065425;28;20214;-64
2022/01/01 08:22:47;;;;;;;15.77;13.10;;;12.10;99.90;;;;;;5057571;28;20208;-66
2022/01/01 08:25:12;;;;;;;22.33;12.70;;;12.00;99.90;;;;;;5056463;28;20200;-66
2022/01/01 08:27:38;;;;;;;18.93;13.47;;;12.10;99.90;;;;;;5065326;28;20565;-64
2022/01/01 08:30:04;;;;;;;27.57;14.37;;;12.10;99.90;;;;;;5052961;28;20634;-64
2022/01/01 08:32:29;;;;;;;20.30;13.37;;;12.10;99.90;;;;;;5059383;28;20199;-66
2022/01/01 08:34:55;;;;;;;24.43;13.70;;;12.10;99.90;;;;;;5060294;28;20193;-66
2022/01/01 08:37:21;;;;;;;21.13;13.20;;;12.10;99.90;;;;;;5064988;28;20720;-66
2022/01/01 08:39:47;;;;;;;20.23;13.70;;;12.10;99.90;;;;;;5055185;28;20203;-66
2022/01/01 08:42:13;;;;;;;20.07;12.97;;;12.20;99.90;;;;;;5061714;28;20288;-66
2022/01/01 08:44:38;;;;;;;17.20;12.80;;;12.10;99.90;;;;;;5049942;28;20259;-66
2022/01/01 08:50:25;;;;;;;24.17;13.40;;;12.20;99.90;;;;;;5069159;28;20193;-66
2022/01/01 08:52:51;;;;;;;25.17;14.00;;;12.20;99.90;;;;;;5065315;28;20191;-66
2022/01/01 08:55:16;;;;;;;24.70;13.33;;;12.20;99.90;;;;;;5065705;28;20492;-64
2022/01/01 08:57:42;;;;;;;26.67;14.43;;;12.20;99.90;;;;;;5075198;28;20494;-65
2022/01/01 09:00:10;;;;;;;21.43;13.87;;;12.20;99.90;;;;;;5072712;28;20210;-65
2022/01/01 09:02:36;;;;;;;25.00;14.23;;;12.30;99.90;;;;;;5063462;28;20197;-66
2022/01/01 09:05:03;;;;;;;19.47;13.10;;;12.30;99.90;;;;;;5056177;28;20191;-69
2022/01/01 09:07:29;;;;;;;21.73;13.10;;;12.40;99.90;;;;;;5063814;28;20187;-70
2022/01/01 09:09:59;;;;;;;20.23;13.83;;;12.40;99.90;;;;;;5055756;28;20188;-69
2022/01/01 09:12:25;;;;;;;21.47;13.57;;;12.50;99.90;;;;;;5070640;28;20234;-68
2022/01/01 09:14:51;;;;;;;25.20;13.67;;;12.50;99.90;;;;;;5074971;28;20234;-69
2022/01/01 09:17:17;;;;;;;26.33;14.33;;;12.60;99.90;;;;;;5077598;28;20551;-67
2022/01/01 09:19:43;;;;;;;19.30;12.80;;;12.50;99.90;;;;;;5072297;28;20215;-69
2022/01/01 09:22:08;;;;;;;27.83;14.87;;;12.50;99.90;;;;;;5076496;28;20268;-67
2022/01/01 09:24:34;;;;;;;26.00;13.67;;;12.60;99.90;;;;;;5080170;28;20388;-67
2022/01/01 09:26:59;;;;;;;22.97;14.33;;;12.60;99.90;;;;;;5062335;28;20489;-68
2022/01/01 09:29:25;;;;;;;21.40;12.07;;;12.60;99.90;;;;;;5054496;28;20560;-69
2022/01/01 09:31:50;;;;;;;20.93;11.87;;;12.60;99.90;;;;;;5065717;28;20199;-67
2022/01/01 09:34:16;;;;;;;21.20;12.67;;;12.60;99.90;;;;;;5056375;28;20672;-67
2022/01/01 09:36:42;;;;;;;30.27;15.40;;;12.60;99.90;;;;;;5066095;28;20212;-68
2022/01/01 09:39:08;;;;;;;27.17;13.47;;;12.60;99.90;;;;;;5051787;28;20759;-67
2022/01/01 09:41:34;;;;;;;23.40;13.13;;;12.60;99.90;;;;;;5066096;28;20196;-68
2022/01/01 09:43:59;;;;;;;24.53;14.17;;;12.60;99.90;;;;;;5055883;28;20311;-68
2022/01/01 09:46:28;;;;;;;21.70;14.33;;;12.60;99.90;;;;;;5065905;28;20189;-68
2022/01/01 09:48:54;;;;;;;22.00;13.67;;;12.60;99.90;;;;;;5059796;28;20343;-68
2022/01/01 09:51:20;;;;;;;20.53;14.30;;;12.60;99.90;;;;;;5065519;28;20238;-69
2022/01/01 09:53:47;;;;;;;22.03;13.80;;;12.60;99.90;;;;;;5060021;28;20311;-68
2022/01/01 09:56:12;;;;;;;24.20;13.30;;;12.70;99.90;;;;;;5066136;28;20189;-69
2022/01/01 09:58:39;;;;;;;22.27;14.03;;;12.60;99.90;;;;;;5055723;28;20204;-68
2022/01/01 10:01:06;;;;;;;21.87;13.07;;;12.70;99.90;;;;;;5065586;28;20421;-69
2022/01/01 10:03:37;;;;;;;21.33;13.40;;;12.70;99.90;;;;;;5054654;28;20280;-69
2022/01/01 10:06:08;;;;;;;26.40;13.83;;;12.70;99.90;;;;;;5064346;28;20194;-68
2022/01/01 10:08:36;;;;;;;27.07;15.70;;;12.70;99.90;;;;;;5053997;28;20193;-68
2022/01/01 10:11:01;;;;;;;22.60;14.47;;;12.70;99.90;;;;;;5064218;28;20255;-68
2022/01/01 10:13:36;;;;;;;23.83;14.13;;;12.70;99.90;;;;;;5054405;28;20205;-68
2022/01/01 10:16:04;;;;;;;24.07;13.83;;;12.70;99.90;;;;;;5054390;28;20706;-68
2022/01/01 10:18:35;;;;;;;28.30;15.07;;;12.70;99.90;;;;;;5056254;28;20203;-68
2022/01/01 10:21:08;;;;;;;24.00;14.93;;;12.70;99.90;;;;;;5051218;28;20251;-68
2022/01/01 10:23:37;;;;;;;27.20;15.40;;;12.70;99.90;;;;;;5045742;28;20194;-68
2022/01/01 10:29:11;;;;;;;27.20;15.60;;;12.60;99.90;;;;;;5056530;28;20229;-70
2022/01/01 10:31:37;;;;;;;29.47;15.00;;;12.60;99.90;;;;;;5058356;28;20204;-70
2022/01/01 10:34:13;;;;;;;33.43;18.13;;;12.60;99.90;;;;;;5057539;28;20221;-69
2022/01/01 10:36:39;;;;;;;27.17;17.20;;;12.60;99.90;;;;;;5063067;28;20701;-69
2022/01/01 10:39:14;;;;;;;25.00;15.93;;;12.60;99.90;;;;;;5053235;28;20244;-68
2022/01/01 10:42:01;;;;;;;27.77;16.57;;;12.60;99.90;;;;;;5059988;28;20238;-69
2022/01/01 10:44:39;;;;;;;30.53;16.40;;;12.60;99.90;;;;;;5059537;28;20202;-68
2022/01/01 10:47:20;;;;;;;26.83;16.53;;;12.60;99.90;;;;;;5063224;28;20183;-68
2022/01/01 10:52:28;;;;;;;23.80;15.90;;;12.60;99.90;;;;;;5064734;28;20323;-69
2022/01/01 10:54:59;;;;;;;26.27;15.13;;;12.70;99.90;;;;;;5053626;28;20203;-69
2022/01/01 10:57:36;;;;;;;23.13;14.93;;;12.70;99.90;;;;;;5058076;28;20202;-68
2022/01/01 11:00:19;;;;;;;23.70;15.80;;;12.70;99.90;;;;;;5055590;28;20566;-69
2022/01/01 11:02:54;;;;;;;31.57;16.93;;;12.70;99.90;;;;;;5054496;28;20204;-69
2022/01/01 11:05:47;;;;;;;26.87;16.40;;;12.80;99.90;;;;;;5064938;28;20259;-69
2022/01/01 11:08:13;;;;;;;25.50;16.50;;;12.80;99.90;;;;;;5042396;28;20663;-69
2022/01/01 11:10:40;;;;;;;25.37;15.77;;;12.80;99.90;;;;;;5063390;28;20183;-69
2022/01/01 11:13:07;;;;;;;25.03;16.43;;;12.80;99.90;;;;;;5062744;28;20666;-69
2022/01/01 11:15:33;;;;;;;29.33;15.67;;;12.80;99.90;;;;;;5062584;28;20235;-68
2022/01/01 11:18:01;;;;;;;26.73;16.77;;;12.80;99.90;;;;;;5058332;28;20203;-68
2022/01/01 11:20:33;;;;;;;32.67;17.10;;;12.90;99.90;;;;;;5061771;28;20240;-69
2022/01/01 11:23:03;;;;;;;28.27;16.23;;;12.80;99.90;;;;;;5043191;28;20326;-71
2022/01/01 11:25:29;;;;;;;27.47;16.30;;;12.80;99.90;;;;;;5061745;28;20664;-76
2022/01/01 11:27:56;;;;;;;21.90;16.10;;;12.80;99.90;;;;;;5061927;28;20568;-70
2022/01/01 11:30:27;;;;;;;24.63;16.50;;;12.80;99.90;;;;;;5052839;28;20202;-71
2022/01/01 11:33:03;;;;;;;28.13;16.70;;;12.80;99.90;;;;;;5052248;28;20237;-71
2022/01/01 11:35:35;;;;;;;25.13;15.10;;;12.80;99.90;;;;;;5057220;28;20306;-69
2022/01/01 11:38:09;;;;;;;27.73;16.67;;;12.80;99.90;;;;;;5043238;28;20206;-69
2022/01/01 11:40:58;;;;;;;27.67;15.40;;;12.90;99.90;;;;;;5055673;28;20217;-70
2022/01/01 11:43:43;;;;;;;26.00;13.63;;;12.90;99.90;;;;;;5044694;28;20199;-70
2022/01/01 11:46:27;;;;;;;26.07;15.43;;;12.90;99.90;;;;;;5061649;28;20599;-70
2022/01/01 11:48:55;;;;;;;19.93;14.70;;;12.90;99.90;;;;;;5049240;28;20195;-70
2022/01/01 11:51:29;;;;;;;20.93;14.13;;;12.90;99.90;;;;;;5062624;28;20556;-69
2022/01/01 11:54:14;;;;;;;22.30;14.47;;;13.00;99.90;;;;;;5052930;28;20192;-70
2022/01/01 11:56:51;;;;;;;26.50;14.50;;;12.90;99.90;;;;;;5055466;28;20176;-69
2022/01/01 11:59:37;;;;;;;22.77;15.03;;;13.00;99.90;;;;;;5059507;28;20212;-71
2022/01/01 12:02:17;;;;;;;20.70;12.50;;;13.00;99.90;;;;;;5059570;28;20216;-71
2022/01/01 12:04:45;;;;;;;26.50;14.57;;;13.00;99.90;;;;;;5058885;28;20653;-70
2022/01/01 12:07:16;;;;;;;25.67;14.37;;;13.00;99.90;;;;;;5065444;28;20248;-72
2022/01/01 12:10:04;;;;;;;26.33;13.63;;;13.10;99.90;;;;;;5057946;28;20183;-70
2022/01/01 12:12:42;;;;;;;27.20;14.27;;;13.00;99.90;;;;;;5055368;28;20203;-69
2022/01/01 12:15:14;;;;;;;27.30;15.13;;;13.10;99.90;;;;;;5064827;28;20226;-70
2022/01/01 12:17:44;;;;;;;24.37;14.60;;;13.10;99.90;;;;;;5046173;28;20207;-70
2022/01/01 12:20:14;;;;;;;27.60;15.07;;;13.10;99.90;;;;;;5066477;28;20212;-71
2022/01/01 12:22:46;;;;;;;27.93;16.07;;;13.00;99.90;;;;;;5055853;28;20200;-71
2022/01/01 12:25:16;;;;;;;25.60;14.93;;;13.00;99.90;;;;;;5059694;28;20220;-72
2022/01/01 12:27:47;;;;;;;30.37;15.70;;;13.10;99.90;;;;;;5062687;28;20205;-70
2022/01/01 12:30:36;;;;;;;21.23;14.40;;;13.10;99.90;;;;;;5060855;28;20201;-70
2022/01/01 12:33:03;;;;;;;26.87;14.90;;;13.00;99.90;;;;;;5054833;28;20224;-71
2022/01/01 12:35:43;;;;;;;21.43;14.37;;;13.00;99.90;;;;;;5066626;28;20215;-71
2022/01/01 12:38:11;;;;;;;27.20;14.10;;;13.00;99.90;;;;;;5057204;28;20199;-71